Terminal Aerodrome Forecast
Issued by NWS

Home | Current Version | Previous Version | Text Only | Print | Product List | Glossary On
Versions: 1 2 3 4 5 6 7 8 9 10 11 12 13 14 15 16 17 18 19
000
FTUS44 KLZK 180500
TAFBPK
TAF
KBPK 180520Z 1806/1906 11007KT 5SM BR VCSH SCT009 BKN015 OVC040
      TEMPO 1806/1809 4SM -RAPLDZ BR BKN006
     FM180900 13004KT 3SM -DZ OVC006
      TEMPO 1809/1813 1SM -DZ BR OVC004
     FM181300 13004KT 1SM BR OVC004
     FM181600 14004KT 4SM BR OVC007=

USA.gov is the U.S. government's official web portal to all federal, state and local government web resources and services.